sensor_id;sensor_type;location;lat;lon;timestamp;temperature;humidity
35531;DHT22;21637;53.352;-6.356;2023-03-24T00:00:00;7.70;99.90
35531;DHT22;21637;53.352;-6.356;2023-03-24T00:02:27;7.80;99.90
35531;DHT22;21637;53.352;-6.356;2023-03-24T00:04:53;7.80;99.90
35531;DHT22;21637;53.352;-6.356;2023-03-24T00:07:23;7.80;99.90
35531;DHT22;21637;53.352;-6.356;2023-03-24T00:09:49;7.80;99.90
35531;DHT22;21637;53.352;-6.356;2023-03-24T00:12:15;7.80;99.90
35531;DHT22;21637;53.352;-6.356;2023-03-24T00:14:43;7.80;99.90
35531;DHT22;21637;53.352;-6.356;2023-03-24T00:17:12;7.80;99.90
35531;DHT22;21637;53.352;-6.356;2023-03-24T00:19:39;7.80;99.90
35531;DHT22;21637;53.352;-6.356;2023-03-24T00:22:06;7.80;99.90
35531;DHT22;21637;53.352;-6.356;2023-03-24T00:24:33;7.80;99.90
35531;DHT22;21637;53.352;-6.356;2023-03-24T00:27:00;7.80;99.90
35531;DHT22;21637;53.352;-6.356;2023-03-24T00:29:28;7.80;99.90
35531;DHT22;21637;53.352;-6.356;2023-03-24T00:31:54;7.80;99.90
35531;DHT22;21637;53.352;-6.356;2023-03-24T00:34:21;7.80;99.90
35531;DHT22;21637;53.352;-6.356;2023-03-24T00:36:48;7.80;99.90
35531;DHT22;21637;53.352;-6.356;2023-03-24T00:39:15;7.90;99.90
35531;DHT22;21637;53.352;-6.356;2023-03-24T00:41:45;7.80;99.90
35531;DHT22;21637;53.352;-6.356;2023-03-24T00:44:14;7.80;99.90
35531;DHT22;21637;53.352;-6.356;2023-03-24T00:46:46;7.80;99.90
35531;DHT22;21637;53.352;-6.356;2023-03-24T00:49:23;7.80;99.90
35531;DHT22;21637;53.352;-6.356;2023-03-24T00:52:13;7.70;99.90
35531;DHT22;21637;53.352;-6.356;2023-03-24T00:54:40;7.80;99.90
35531;DHT22;21637;53.352;-6.356;2023-03-24T00:57:09;7.80;99.90
35531;DHT22;21637;53.352;-6.356;2023-03-24T00:59:37;7.80;99.90
35531;DHT22;21637;53.352;-6.356;2023-03-24T01:02:10;7.80;99.90
35531;DHT22;21637;53.352;-6.356;2023-03-24T01:04:40;7.80;99.90
35531;DHT22;21637;53.352;-6.356;2023-03-24T01:07:09;7.70;99.90
35531;DHT22;21637;53.352;-6.356;2023-03-24T01:09:36;7.70;99.90
35531;DHT22;21637;53.352;-6.356;2023-03-24T01:12:02;7.80;99.90
35531;DHT22;21637;53.352;-6.356;2023-03-24T01:14:29;7.80;99.90
35531;DHT22;21637;53.352;-6.356;2023-03-24T01:16:56;7.80;99.90
35531;DHT22;21637;53.352;-6.356;2023-03-24T01:19:21;7.90;99.90
35531;DHT22;21637;53.352;-6.356;2023-03-24T01:21:47;7.90;99.90
35531;DHT22;21637;53.352;-6.356;2023-03-24T01:24:16;7.90;99.90
35531;DHT22;21637;53.352;-6.356;2023-03-24T01:26:42;7.90;99.90
35531;DHT22;21637;53.352;-6.356;2023-03-24T01:29:08;7.90;99.90
35531;DHT22;21637;53.352;-6.356;2023-03-24T01:31:34;7.90;99.90
35531;DHT22;21637;53.352;-6.356;2023-03-24T01:34:01;7.90;99.90
35531;DHT22;21637;53.352;-6.356;2023-03-24T01:36:27;8.00;99.90
35531;DHT22;21637;53.352;-6.356;2023-03-24T01:38:53;8.00;99.90
35531;DHT22;21637;53.352;-6.356;2023-03-24T01:41:18;8.00;99.90
35531;DHT22;21637;53.352;-6.356;2023-03-24T01:43:44;8.00;99.90
35531;DHT22;21637;53.352;-6.356;2023-03-24T01:46:18;8.10;99.90
35531;DHT22;21637;53.352;-6.356;2023-03-24T01:49:06;8.20;99.90
35531;DHT22;21637;53.352;-6.356;2023-03-24T01:51:36;8.20;99.90
35531;DHT22;21637;53.352;-6.356;2023-03-24T01:54:24;8.20;99.90
35531;DHT22;21637;53.352;-6.356;2023-03-24T01:59:35;8.30;99.90
35531;DHT22;21637;53.352;-6.356;2023-03-24T02:02:03;8.30;99.90
35531;DHT22;21637;53.352;-6.356;2023-03-24T02:04:35;8.30;99.90
35531;DHT22;21637;53.352;-6.356;2023-03-24T02:09:50;8.40;99.90
35531;DHT22;21637;53.352;-6.356;2023-03-24T02:12:16;8.40;99.90
35531;DHT22;21637;53.352;-6.356;2023-03-24T02:14:42;8.40;99.90
35531;DHT22;21637;53.352;-6.356;2023-03-24T02:20:27;8.30;99.90
35531;DHT22;21637;53.352;-6.356;2023-03-24T02:22:58;8.30;99.90
35531;DHT22;21637;53.352;-6.356;2023-03-24T02:39:28;8.30;99.90
35531;DHT22;21637;53.352;-6.356;2023-03-24T02:45:20;8.20;99.90
35531;DHT22;21637;53.352;-6.356;2023-03-24T02:51:06;8.20;99.90
35531;DHT22;21637;53.352;-6.356;2023-03-24T02:54:02;8.20;99.90
35531;DHT22;21637;53.352;-6.356;2023-03-24T02:56:37;8.20;99.90
35531;DHT22;21637;53.352;-6.356;2023-03-24T02:59:07;8.20;99.90
35531;DHT22;21637;53.352;-6.356;2023-03-24T03:01:43;8.20;99.90
35531;DHT22;21637;53.352;-6.356;2023-03-24T03:04:22;8.20;99.90
35531;DHT22;21637;53.352;-6.356;2023-03-24T03:06:52;8.10;99.90
35531;DHT22;21637;53.352;-6.356;2023-03-24T03:09:20;8.10;99.90
35531;DHT22;21637;53.352;-6.356;2023-03-24T03:11:48;8.10;99.90
35531;DHT22;21637;53.352;-6.356;2023-03-24T03:14:23;8.10;99.90
35531;DHT22;21637;53.352;-6.356;2023-03-24T03:16:51;8.10;99.90
35531;DHT22;21637;53.352;-6.356;2023-03-24T03:19:31;8.00;99.90
35531;DHT22;21637;53.352;-6.356;2023-03-24T03:21:58;8.00;99.90
35531;DHT22;21637;53.352;-6.356;2023-03-24T03:24:40;7.90;99.90
35531;DHT22;21637;53.352;-6.356;2023-03-24T03:27:15;7.90;99.90
35531;DHT22;21637;53.352;-6.356;2023-03-24T03:29:49;8.00;99.90
35531;DHT22;21637;53.352;-6.356;2023-03-24T03:32:23;8.00;99.90
35531;DHT22;21637;53.352;-6.356;2023-03-24T03:37:57;8.10;99.90
35531;DHT22;21637;53.352;-6.356;2023-03-24T03:40:35;8.10;99.90
35531;DHT22;21637;53.352;-6.356;2023-03-24T03:43:03;8.10;99.90
35531;DHT22;21637;53.352;-6.356;2023-03-24T03:45:29;8.10;99.90
35531;DHT22;21637;53.352;-6.356;2023-03-24T03:47:55;8.10;99.90
35531;DHT22;21637;53.352;-6.356;2023-03-24T03:50:21;8.20;99.90
35531;DHT22;21637;53.352;-6.356;2023-03-24T03:52:47;8.20;99.90
35531;DHT22;21637;53.352;-6.356;2023-03-24T03:55:14;8.20;99.90
35531;DHT22;21637;53.352;-6.356;2023-03-24T03:57:42;8.20;99.90
35531;DHT22;21637;53.352;-6.356;2023-03-24T04:00:15;8.20;99.90
35531;DHT22;21637;53.352;-6.356;2023-03-24T04:06:35;8.30;99.90
35531;DHT22;21637;53.352;-6.356;2023-03-24T04:09:20;8.30;99.90
35531;DHT22;21637;53.352;-6.356;2023-03-24T04:22:26;8.50;99.90
35531;DHT22;21637;53.352;-6.356;2023-03-24T04:30:42;8.40;99.90
35531;DHT22;21637;53.352;-6.356;2023-03-24T04:33:24;8.50;99.90
35531;DHT22;21637;53.352;-6.356;2023-03-24T04:36:14;8.50;99.90
35531;DHT22;21637;53.352;-6.356;2023-03-24T04:38:44;8.50;99.90
35531;DHT22;21637;53.352;-6.356;2023-03-24T04:41:13;8.50;99.90
35531;DHT22;21637;53.352;-6.356;2023-03-24T04:43:43;8.40;99.90
35531;DHT22;21637;53.352;-6.356;2023-03-24T04:46:10;8.40;99.90
35531;DHT22;21637;53.352;-6.356;2023-03-24T04:48:36;8.50;99.90
35531;DHT22;21637;53.352;-6.356;2023-03-24T04:51:02;8.40;99.90
35531;DHT22;21637;53.352;-6.356;2023-03-24T04:53:29;8.40;99.90
35531;DHT22;21637;53.352;-6.356;2023-03-24T04:58:23;8.50;99.90
35531;DHT22;21637;53.352;-6.356;2023-03-24T05:00:51;8.50;99.90
35531;DHT22;21637;53.352;-6.356;2023-03-24T05:03:17;8.50;99.90
35531;DHT22;21637;53.352;-6.356;2023-03-24T05:05:45;8.50;99.90
35531;DHT22;21637;53.352;-6.356;2023-03-24T05:08:13;8.50;99.90
35531;DHT22;21637;53.352;-6.356;2023-03-24T05:10:39;8.50;99.90
35531;DHT22;21637;53.352;-6.356;2023-03-24T05:13:06;8.40;99.90
35531;DHT22;21637;53.352;-6.356;2023-03-24T05:15:32;8.50;99.90
35531;DHT22;21637;53.352;-6.356;2023-03-24T05:17:58;8.40;99.90
35531;DHT22;21637;53.352;-6.356;2023-03-24T05:20:25;8.40;99.90
35531;DHT22;21637;53.352;-6.356;2023-03-24T05:22:51;8.40;99.90
35531;DHT22;21637;53.352;-6.356;2023-03-24T05:25:18;8.40;99.90
35531;DHT22;21637;53.352;-6.356;2023-03-24T05:27:44;8.40;99.90
35531;DHT22;21637;53.352;-6.356;2023-03-24T05:30:11;8.40;99.90
35531;DHT22;21637;53.352;-6.356;2023-03-24T05:32:37;8.40;99.90
35531;DHT22;21637;53.352;-6.356;2023-03-24T05:35:03;8.40;99.90
35531;DHT22;21637;53.352;-6.356;2023-03-24T05:37:29;8.40;99.90
35531;DHT22;21637;53.352;-6.356;2023-03-24T05:39:55;8.40;99.90
35531;DHT22;21637;53.352;-6.356;2023-03-24T05:42:21;8.40;99.90
35531;DHT22;21637;53.352;-6.356;2023-03-24T05:44:47;8.40;99.90
35531;DHT22;21637;53.352;-6.356;2023-03-24T05:47:13;8.40;99.90
35531;DHT22;21637;53.352;-6.356;2023-03-24T05:49:43;8.40;99.90
35531;DHT22;21637;53.352;-6.356;2023-03-24T05:52:11;8.40;99.90
35531;DHT22;21637;53.352;-6.356;2023-03-24T05:54:37;8.40;99.90
35531;DHT22;21637;53.352;-6.356;2023-03-24T05:57:05;8.40;99.90
35531;DHT22;21637;53.352;-6.356;2023-03-24T05:59:34;8.50;99.90
35531;DHT22;21637;53.352;-6.356;2023-03-24T06:02:00;8.40;99.90
35531;DHT22;21637;53.352;-6.356;2023-03-24T06:04:26;8.40;99.90
35531;DHT22;21637;53.352;-6.356;2023-03-24T06:06:56;8.40;99.90
35531;DHT22;21637;53.352;-6.356;2023-03-24T06:09:29;8.40;99.90
35531;DHT22;21637;53.352;-6.356;2023-03-24T06:12:00;8.40;99.90
35531;DHT22;21637;53.352;-6.356;2023-03-24T06:14:26;8.50;99.90
35531;DHT22;21637;53.352;-6.356;2023-03-24T06:16:52;8.50;99.90
35531;DHT22;21637;53.352;-6.356;2023-03-24T06:19:18;8.50;99.90
35531;DHT22;21637;53.352;-6.356;2023-03-24T06:21:47;8.50;99.90
35531;DHT22;21637;53.352;-6.356;2023-03-24T06:24:16;8.40;99.90
35531;DHT22;21637;53.352;-6.356;2023-03-24T06:26:42;8.40;99.90
35531;DHT22;21637;53.352;-6.356;2023-03-24T06:29:09;8.40;99.90
35531;DHT22;21637;53.352;-6.356;2023-03-24T06:31:35;8.40;99.90
35531;DHT22;21637;53.352;-6.356;2023-03-24T06:34:04;8.50;99.90
35531;DHT22;21637;53.352;-6.356;2023-03-24T06:36:31;8.40;99.90
35531;DHT22;21637;53.352;-6.356;2023-03-24T06:38:59;8.50;99.90
35531;DHT22;21637;53.352;-6.356;2023-03-24T06:41:26;8.50;99.90
35531;DHT22;21637;53.352;-6.356;2023-03-24T06:43:52;8.50;99.90
35531;DHT22;21637;53.352;-6.356;2023-03-24T06:46:19;8.50;99.90
35531;DHT22;21637;53.352;-6.356;2023-03-24T06:48:45;8.50;99.90
35531;DHT22;21637;53.352;-6.356;2023-03-24T06:51:11;8.60;99.90
35531;DHT22;21637;53.352;-6.356;2023-03-24T06:53:37;8.50;99.90
35531;DHT22;21637;53.352;-6.356;2023-03-24T06:56:06;8.60;99.90
35531;DHT22;21637;53.352;-6.356;2023-03-24T06:58:32;8.60;99.90
35531;DHT22;21637;53.352;-6.356;2023-03-24T07:00:59;8.60;99.90
35531;DHT22;21637;53.352;-6.356;2023-03-24T07:03:25;8.70;99.90
35531;DHT22;21637;53.352;-6.356;2023-03-24T07:05:51;8.70;99.90
35531;DHT22;21637;53.352;-6.356;2023-03-24T07:08:17;8.70;99.90
35531;DHT22;21637;53.352;-6.356;2023-03-24T07:10:43;8.80;99.90
35531;DHT22;21637;53.352;-6.356;2023-03-24T07:13:09;8.80;99.90
35531;DHT22;21637;53.352;-6.356;2023-03-24T07:15:36;8.80;99.90
35531;DHT22;21637;53.352;-6.356;2023-03-24T07:18:02;8.80;99.90
35531;DHT22;21637;53.352;-6.356;2023-03-24T07:20:27;8.80;99.90
35531;DHT22;21637;53.352;-6.356;2023-03-24T07:22:57;8.80;99.90
35531;DHT22;21637;53.352;-6.356;2023-03-24T07:25:23;8.80;99.90
35531;DHT22;21637;53.352;-6.356;2023-03-24T07:27:52;8.90;99.90
35531;DHT22;21637;53.352;-6.356;2023-03-24T07:30:19;8.90;99.90
35531;DHT22;21637;53.352;-6.356;2023-03-24T07:32:45;9.00;99.90
35531;DHT22;21637;53.352;-6.356;2023-03-24T07:35:13;9.00;99.90
35531;DHT22;21637;53.352;-6.356;2023-03-24T07:37:41;9.10;99.90
35531;DHT22;21637;53.352;-6.356;2023-03-24T07:40:07;9.10;99.90
35531;DHT22;21637;53.352;-6.356;2023-03-24T07:42:40;9.20;99.90
35531;DHT22;21637;53.352;-6.356;2023-03-24T07:45:11;9.40;99.90
35531;DHT22;21637;53.352;-6.356;2023-03-24T07:47:38;9.50;99.90
35531;DHT22;21637;53.352;-6.356;2023-03-24T07:50:07;9.60;99.90
35531;DHT22;21637;53.352;-6.356;2023-03-24T07:52:38;9.80;99.90
35531;DHT22;21637;53.352;-6.356;2023-03-24T07:55:06;10.00;99.90
35531;DHT22;21637;53.352;-6.356;2023-03-24T07:57:33;10.00;99.90
35531;DHT22;21637;53.352;-6.356;2023-03-24T08:00:06;10.10;99.90
35531;DHT22;21637;53.352;-6.356;2023-03-24T08:02:39;10.20;99.90
35531;DHT22;21637;53.352;-6.356;2023-03-24T08:05:06;10.30;99.90
35531;DHT22;21637;53.352;-6.356;2023-03-24T08:07:32;10.40;99.90
35531;DHT22;21637;53.352;-6.356;2023-03-24T08:09:59;10.60;99.90
35531;DHT22;21637;53.352;-6.356;2023-03-24T08:12:24;10.60;99.90
35531;DHT22;21637;53.352;-6.356;2023-03-24T08:14:50;10.50;99.90
35531;DHT22;21637;53.352;-6.356;2023-03-24T08:17:16;10.50;99.90
35531;DHT22;21637;53.352;-6.356;2023-03-24T08:19:42;10.50;99.90
35531;DHT22;21637;53.352;-6.356;2023-03-24T08:22:08;10.40;99.90
35531;DHT22;21637;53.352;-6.356;2023-03-24T08:24:34;10.30;99.90
35531;DHT22;21637;53.352;-6.356;2023-03-24T08:27:01;10.20;99.90
35531;DHT22;21637;53.352;-6.356;2023-03-24T08:29:31;10.10;99.90
35531;DHT22;21637;53.352;-6.356;2023-03-24T08:31:59;10.10;99.90
35531;DHT22;21637;53.352;-6.356;2023-03-24T08:34:25;10.10;99.90
35531;DHT22;21637;53.352;-6.356;2023-03-24T08:36:51;10.00;99.90
35531;DHT22;21637;53.352;-6.356;2023-03-24T08:39:17;10.00;99.90
35531;DHT22;21637;53.352;-6.356;2023-03-24T08:41:43;10.00;99.90
35531;DHT22;21637;53.352;-6.356;2023-03-24T08:44:09;10.10;99.90
35531;DHT22;21637;53.352;-6.356;2023-03-24T08:46:36;10.20;99.90
35531;DHT22;21637;53.352;-6.356;2023-03-24T08:49:03;10.30;99.90
35531;DHT22;21637;53.352;-6.356;2023-03-24T08:51:30;10.40;99.90
35531;DHT22;21637;53.352;-6.356;2023-03-24T08:53:56;10.50;99.90
35531;DHT22;21637;53.352;-6.356;2023-03-24T08:56:21;10.60;99.90
35531;DHT22;21637;53.352;-6.356;2023-03-24T08:58:47;10.70;99.90
35531;DHT22;21637;53.352;-6.356;2023-03-24T09:01:19;10.90;99.90
35531;DHT22;21637;53.352;-6.356;2023-03-24T09:03:44;11.00;99.90
35531;DHT22;21637;53.352;-6.356;2023-03-24T09:06:11;11.00;99.90
35531;DHT22;21637;53.352;-6.356;2023-03-24T09:08:37;11.10;99.90
35531;DHT22;21637;53.352;-6.356;2023-03-24T09:11:04;11.20;99.90
35531;DHT22;21637;53.352;-6.356;2023-03-24T09:13:29;11.30;99.90
35531;DHT22;21637;53.352;-6.356;2023-03-24T09:16:01;11.40;99.90
35531;DHT22;21637;53.352;-6.356;2023-03-24T09:18:28;11.40;99.90
35531;DHT22;21637;53.352;-6.356;2023-03-24T09:20:53;11.50;99.90
35531;DHT22;21637;53.352;-6.356;2023-03-24T09:23:20;11.60;99.90
35531;DHT22;21637;53.352;-6.356;2023-03-24T09:25:59;11.60;99.90
35531;DHT22;21637;53.352;-6.356;2023-03-24T09:28:26;11.80;99.90
35531;DHT22;21637;53.352;-6.356;2023-03-24T09:30:57;11.90;99.90
35531;DHT22;21637;53.352;-6.356;2023-03-24T09:33:23;11.90;99.90
35531;DHT22;21637;53.352;-6.356;2023-03-24T09:35:54;11.90;99.90
35531;DHT22;21637;53.352;-6.356;2023-03-24T09:38:20;11.90;99.90
35531;DHT22;21637;53.352;-6.356;2023-03-24T09:40:50;12.10;99.90
35531;DHT22;21637;53.352;-6.356;2023-03-24T09:43:36;12.10;99.90
35531;DHT22;21637;53.352;-6.356;2023-03-24T09:46:09;12.20;99.90
35531;DHT22;21637;53.352;-6.356;2023-03-24T09:51:33;12.10;99.90
35531;DHT22;21637;53.352;-6.356;2023-03-24T09:54:37;12.20;99.90
35531;DHT22;21637;53.352;-6.356;2023-03-24T09:57:15;12.20;99.90
35531;DHT22;21637;53.352;-6.356;2023-03-24T09:59:42;12.10;99.90
35531;DHT22;21637;53.352;-6.356;2023-03-24T10:02:17;12.10;99.90
35531;DHT22;21637;53.352;-6.356;2023-03-24T10:04:43;12.10;99.90
35531;DHT22;21637;53.352;-6.356;2023-03-24T10:07:15;12.20;99.90
35531;DHT22;21637;53.352;-6.356;2023-03-24T10:09:45;12.20;99.90
35531;DHT22;21637;53.352;-6.356;2023-03-24T10:20:15;12.10;99.90
35531;DHT22;21637;53.352;-6.356;2023-03-24T10:23:03;12.10;99.90
35531;DHT22;21637;53.352;-6.356;2023-03-24T10:25:53;12.30;99.90
35531;DHT22;21637;53.352;-6.356;2023-03-24T10:31:10;12.60;99.90
35531;DHT22;21637;53.352;-6.356;2023-03-24T10:33:41;12.60;99.90
35531;DHT22;21637;53.352;-6.356;2023-03-24T10:36:16;12.70;99.90
35531;DHT22;21637;53.352;-6.356;2023-03-24T10:38:45;12.80;99.90
35531;DHT22;21637;53.352;-6.356;2023-03-24T10:41:27;12.80;99.90
35531;DHT22;21637;53.352;-6.356;2023-03-24T10:43:55;12.80;99.90
35531;DHT22;21637;53.352;-6.356;2023-03-24T10:46:27;12.70;99.90
35531;DHT22;21637;53.352;-6.356;2023-03-24T10:51:36;12.60;99.90
35531;DHT22;21637;53.352;-6.356;2023-03-24T10:54:19;12.60;99.90
35531;DHT22;21637;53.352;-6.356;2023-03-24T10:56:48;12.60;99.90
35531;DHT22;21637;53.352;-6.356;2023-03-24T10:59:24;12.60;99.90
35531;DHT22;21637;53.352;-6.356;2023-03-24T11:04:36;12.70;99.90
35531;DHT22;21637;53.352;-6.356;2023-03-24T11:07:15;12.80;99.90
35531;DHT22;21637;53.352;-6.356;2023-03-24T11:09:44;12.80;99.90
35531;DHT22;21637;53.352;-6.356;2023-03-24T11:12:41;12.80;99.90
35531;DHT22;21637;53.352;-6.356;2023-03-24T11:17:45;13.00;99.90
35531;DHT22;21637;53.352;-6.356;2023-03-24T11:20:35;13.10;99.90
35531;DHT22;21637;53.352;-6.356;2023-03-24T11:23:20;13.20;99.90
35531;DHT22;21637;53.352;-6.356;2023-03-24T11:26:16;13.10;99.90
35531;DHT22;21637;53.352;-6.356;2023-03-24T11:28:51;13.10;99.90
35531;DHT22;21637;53.352;-6.356;2023-03-24T11:39:00;13.10;99.90
35531;DHT22;21637;53.352;-6.356;2023-03-24T11:41:27;13.20;99.90
35531;DHT22;21637;53.352;-6.356;2023-03-24T11:44:22;13.20;99.90
35531;DHT22;21637;53.352;-6.356;2023-03-24T11:46:54;13.10;99.90
35531;DHT22;21637;53.352;-6.356;2023-03-24T11:49:29;13.10;99.90
35531;DHT22;21637;53.352;-6.356;2023-03-24T11:51:56;13.10;99.90
35531;DHT22;21637;53.352;-6.356;2023-03-24T11:54:32;13.00;99.90
35531;DHT22;21637;53.352;-6.356;2023-03-24T11:57:06;13.00;99.90
35531;DHT22;21637;53.352;-6.356;2023-03-24T11:59:46;13.00;99.90
35531;DHT22;21637;53.352;-6.356;2023-03-24T12:05:30;13.10;99.90
35531;DHT22;21637;53.352;-6.356;2023-03-24T12:10:54;13.20;99.90
35531;DHT22;21637;53.352;-6.356;2023-03-24T12:13:40;13.30;99.90
35531;DHT22;21637;53.352;-6.356;2023-03-24T12:24:27;13.40;99.90
35531;DHT22;21637;53.352;-6.356;2023-03-24T12:26:58;13.30;99.90
35531;DHT22;21637;53.352;-6.356;2023-03-24T12:29:52;13.50;99.90
35531;DHT22;21637;53.352;-6.356;2023-03-24T12:32:45;13.60;99.90
35531;DHT22;21637;53.352;-6.356;2023-03-24T12:35:42;13.60;99.90
35531;DHT22;21637;53.352;-6.356;2023-03-24T12:57:46;13.40;99.90
35531;DHT22;21637;53.352;-6.356;2023-03-24T13:00:19;13.30;99.90
35531;DHT22;21637;53.352;-6.356;2023-03-24T13:02:53;13.10;99.90
35531;DHT22;21637;53.352;-6.356;2023-03-24T13:05:25;13.10;99.90
35531;DHT22;21637;53.352;-6.356;2023-03-24T13:07:56;13.10;99.90
35531;DHT22;21637;53.352;-6.356;2023-03-24T13:10:28;13.20;99.90
35531;DHT22;21637;53.352;-6.356;2023-03-24T13:13:14;13.30;99.90
35531;DHT22;21637;53.352;-6.356;2023-03-24T13:15:56;13.30;99.90
35531;DHT22;21637;53.352;-6.356;2023-03-24T13:18:38;13.40;99.90
35531;DHT22;21637;53.352;-6.356;2023-03-24T13:21:14;13.40;99.90
35531;DHT22;21637;53.352;-6.356;2023-03-24T13:24:11;13.40;99.90
35531;DHT22;21637;53.352;-6.356;2023-03-24T13:27:00;13.50;99.90
35531;DHT22;21637;53.352;-6.356;2023-03-24T13:35:05;13.60;99.90
35531;DHT22;21637;53.352;-6.356;2023-03-24T13:37:45;13.60;99.90
35531;DHT22;21637;53.352;-6.356;2023-03-24T13:40:22;13.40;99.90
35531;DHT22;21637;53.352;-6.356;2023-03-24T13:45:50;12.20;99.90
35531;DHT22;21637;53.352;-6.356;2023-03-24T13:48:25;11.90;99.90
35531;DHT22;21637;53.352;-6.356;2023-03-24T13:51:01;11.50;99.90
35531;DHT22;21637;53.352;-6.356;2023-03-24T13:53:37;11.30;99.90
35531;DHT22;21637;53.352;-6.356;2023-03-24T13:56:04;11.00;99.90
35531;DHT22;21637;53.352;-6.356;2023-03-24T13:58:50;10.90;99.90
35531;DHT22;21637;53.352;-6.356;2023-03-24T14:01:38;10.70;99.90
35531;DHT22;21637;53.352;-6.356;2023-03-24T14:04:27;10.60;99.90
35531;DHT22;21637;53.352;-6.356;2023-03-24T14:09:24;10.30;99.90
35531;DHT22;21637;53.352;-6.356;2023-03-24T14:14:29;10.30;99.90
35531;DHT22;21637;53.352;-6.356;2023-03-24T14:22:24;10.40;99.90
35531;DHT22;21637;53.352;-6.356;2023-03-24T14:27:34;10.70;99.90
35531;DHT22;21637;53.352;-6.356;2023-03-24T14:32:46;11.00;99.90
35531;DHT22;21637;53.352;-6.356;2023-03-24T14:38:19;11.00;99.90
35531;DHT22;21637;53.352;-6.356;2023-03-24T14:40:51;11.10;99.90
35531;DHT22;21637;53.352;-6.356;2023-03-24T14:43:26;11.00;99.90
35531;DHT22;21637;53.352;-6.356;2023-03-24T14:46:04;11.10;99.90
35531;DHT22;21637;53.352;-6.356;2023-03-24T14:54:11;11.40;99.90
35531;DHT22;21637;53.352;-6.356;2023-03-24T14:56:40;11.50;99.90
35531;DHT22;21637;53.352;-6.356;2023-03-24T15:02:30;11.60;99.90
35531;DHT22;21637;53.352;-6.356;2023-03-24T15:05:17;11.60;99.90
35531;DHT22;21637;53.352;-6.356;2023-03-24T15:07:57;11.60;99.90
35531;DHT22;21637;53.352;-6.356;2023-03-24T15:10:32;11.80;99.90
35531;DHT22;21637;53.352;-6.356;2023-03-24T15:13:00;12.00;99.90
35531;DHT22;21637;53.352;-6.356;2023-03-24T15:15:25;12.00;99.90
35531;DHT22;21637;53.352;-6.356;2023-03-24T15:17:52;12.00;99.90
35531;DHT22;21637;53.352;-6.356;2023-03-24T15:22:48;11.80;99.90
35531;DHT22;21637;53.352;-6.356;2023-03-24T15:25:15;11.70;99.90
35531;DHT22;21637;53.352;-6.356;2023-03-24T15:27:48;11.60;99.90
35531;DHT22;21637;53.352;-6.356;2023-03-24T15:30:17;11.70;99.90
35531;DHT22;21637;53.352;-6.356;2023-03-24T15:32:43;11.80;99.90
35531;DHT22;21637;53.352;-6.356;2023-03-24T15:35:19;11.80;99.90
35531;DHT22;21637;53.352;-6.356;2023-03-24T15:37:54;12.00;99.90
35531;DHT22;21637;53.352;-6.356;2023-03-24T15:42:56;12.10;99.90
35531;DHT22;21637;53.352;-6.356;2023-03-24T15:47:50;12.20;99.90
35531;DHT22;21637;53.352;-6.356;2023-03-24T15:50:40;12.10;99.90
35531;DHT22;21637;53.352;-6.356;2023-03-24T15:53:23;11.80;99.90
35531;DHT22;21637;53.352;-6.356;2023-03-24T15:55:59;11.70;99.90
35531;DHT22;21637;53.352;-6.356;2023-03-24T15:58:27;11.60;99.90
35531;DHT22;21637;53.352;-6.356;2023-03-24T16:00:58;11.60;99.90
35531;DHT22;21637;53.352;-6.356;2023-03-24T16:03:25;11.60;99.90
35531;DHT22;21637;53.352;-6.356;2023-03-24T16:05:53;11.50;99.90
35531;DHT22;21637;53.352;-6.356;2023-03-24T16:08:26;11.40;99.90
35531;DHT22;21637;53.352;-6.356;2023-03-24T16:10:58;11.40;99.90
35531;DHT22;21637;53.352;-6.356;2023-03-24T16:13:24;11.30;99.90
35531;DHT22;21637;53.352;-6.356;2023-03-24T16:15:57;11.30;99.90
35531;DHT22;21637;53.352;-6.356;2023-03-24T16:18:34;11.20;99.90
35531;DHT22;21637;53.352;-6.356;2023-03-24T16:21:02;11.20;99.90
35531;DHT22;21637;53.352;-6.356;2023-03-24T16:23:29;11.10;99.90
35531;DHT22;21637;53.352;-6.356;2023-03-24T16:25:55;11.10;99.90
35531;DHT22;21637;53.352;-6.356;2023-03-24T16:28:21;11.10;99.90
35531;DHT22;21637;53.352;-6.356;2023-03-24T16:30:57;11.10;99.90
35531;DHT22;21637;53.352;-6.356;2023-03-24T16:33:23;11.10;99.90
35531;DHT22;21637;53.352;-6.356;2023-03-24T16:35:49;11.00;99.90
35531;DHT22;21637;53.352;-6.356;2023-03-24T16:38:15;10.90;99.90
35531;DHT22;21637;53.352;-6.356;2023-03-24T16:40:53;10.80;99.90
35531;DHT22;21637;53.352;-6.356;2023-03-24T16:43:19;10.80;99.90
35531;DHT22;21637;53.352;-6.356;2023-03-24T16:45:49;10.80;99.90
35531;DHT22;21637;53.352;-6.356;2023-03-24T16:48:16;10.70;99.90
35531;DHT22;21637;53.352;-6.356;2023-03-24T16:50:45;10.60;99.90
35531;DHT22;21637;53.352;-6.356;2023-03-24T16:53:14;10.50;99.90
35531;DHT22;21637;53.352;-6.356;2023-03-24T16:55:41;10.50;99.90
35531;DHT22;21637;53.352;-6.356;2023-03-24T16:58:11;10.50;99.90
35531;DHT22;21637;53.352;-6.356;2023-03-24T17:00:37;10.50;99.90
35531;DHT22;21637;53.352;-6.356;2023-03-24T17:03:04;10.40;99.90
35531;DHT22;21637;53.352;-6.356;2023-03-24T17:05:39;10.40;99.90
35531;DHT22;21637;53.352;-6.356;2023-03-24T17:08:06;10.40;99.90
35531;DHT22;21637;53.352;-6.356;2023-03-24T17:10:32;10.40;99.90
35531;DHT22;21637;53.352;-6.356;2023-03-24T17:12:57;10.40;99.90
35531;DHT22;21637;53.352;-6.356;2023-03-24T17:15:26;10.40;99.90
35531;DHT22;21637;53.352;-6.356;2023-03-24T17:17:52;10.40;99.90
35531;DHT22;21637;53.352;-6.356;2023-03-24T17:20:19;10.30;99.90
35531;DHT22;21637;53.352;-6.356;2023-03-24T17:22:47;10.20;99.90
35531;DHT22;21637;53.352;-6.356;2023-03-24T17:25:15;10.10;99.90
35531;DHT22;21637;53.352;-6.356;2023-03-24T17:27:42;10.10;99.90
35531;DHT22;21637;53.352;-6.356;2023-03-24T17:30:09;10.10;99.90
35531;DHT22;21637;53.352;-6.356;2023-03-24T17:32:36;10.10;99.90
35531;DHT22;21637;53.352;-6.356;2023-03-24T17:35:03;10.10;99.90
35531;DHT22;21637;53.352;-6.356;2023-03-24T17:37:29;10.10;99.90
35531;DHT22;21637;53.352;-6.356;2023-03-24T17:39:56;10.00;99.90
35531;DHT22;21637;53.352;-6.356;2023-03-24T17:42:23;10.00;99.90
35531;DHT22;21637;53.352;-6.356;2023-03-24T17:44:50;10.00;99.90
35531;DHT22;21637;53.352;-6.356;2023-03-24T17:47:16;10.00;99.90
35531;DHT22;21637;53.352;-6.356;2023-03-24T17:49:42;10.00;99.90
35531;DHT22;21637;53.352;-6.356;2023-03-24T17:52:08;9.90;99.90
35531;DHT22;21637;53.352;-6.356;2023-03-24T17:54:34;9.90;99.90
35531;DHT22;21637;53.352;-6.356;2023-03-24T17:57:00;9.80;99.90
35531;DHT22;21637;53.352;-6.356;2023-03-24T17:59:25;9.80;99.90
35531;DHT22;21637;53.352;-6.356;2023-03-24T18:01:51;9.70;99.90
35531;DHT22;21637;53.352;-6.356;2023-03-24T18:04:17;9.70;99.90
35531;DHT22;21637;53.352;-6.356;2023-03-24T18:06:43;9.60;99.90
35531;DHT22;21637;53.352;-6.356;2023-03-24T18:09:10;9.60;99.90
35531;DHT22;21637;53.352;-6.356;2023-03-24T18:11:36;9.50;99.90
35531;DHT22;21637;53.352;-6.356;2023-03-24T18:14:02;9.50;99.90
35531;DHT22;21637;53.352;-6.356;2023-03-24T18:16:28;9.50;99.90
35531;DHT22;21637;53.352;-6.356;2023-03-24T18:18:55;9.50;99.90
35531;DHT22;21637;53.352;-6.356;2023-03-24T18:21:21;9.50;99.90
35531;DHT22;21637;53.352;-6.356;2023-03-24T18:23:48;9.50;99.90